createdAt,value
2019-01-14T00:00:04.328Z,983.64
2019-01-14T00:01:04.285Z,983.57
2019-01-14T00:02:04.277Z,983.72
2019-01-14T00:03:04.270Z,983.74
2019-01-14T00:04:04.259Z,983.96
2019-01-14T00:05:04.255Z,983.85
2019-01-14T00:06:10.117Z,983.85
2019-01-14T00:07:05.220Z,984.15
2019-01-14T00:08:04.204Z,983.93
2019-01-14T00:09:04.194Z,984.05
2019-01-14T00:10:04.198Z,984.07
2019-01-14T00:11:04.177Z,984.00
2019-01-14T00:12:04.172Z,984.11
2019-01-14T00:13:04.170Z,984.39
2019-01-14T00:14:04.140Z,984.02
2019-01-14T00:15:04.146Z,984.18
2019-01-14T00:16:04.128Z,984.01
2019-01-14T00:17:04.113Z,984.14
2019-01-14T00:18:04.109Z,984.13
2019-01-14T00:19:04.102Z,984.68
2019-01-14T00:20:04.092Z,984.49
2019-01-14T00:21:04.066Z,984.36
2019-01-14T00:22:04.064Z,984.30
2019-01-14T00:23:04.031Z,984.31
2019-01-14T00:24:04.021Z,984.51
2019-01-14T00:25:04.027Z,984.24
2019-01-14T00:26:04.014Z,984.41
2019-01-14T00:27:04.003Z,984.48
2019-01-14T00:28:03.977Z,984.24
2019-01-14T00:29:03.972Z,984.39
2019-01-14T00:30:03.982Z,984.35
2019-01-14T00:31:03.939Z,983.99
2019-01-14T00:32:03.937Z,984.24
2019-01-14T00:33:03.935Z,984.30
2019-01-14T00:34:03.921Z,984.28
2019-01-14T00:35:03.924Z,984.42
2019-01-14T00:36:03.895Z,984.47
2019-01-14T00:37:03.892Z,984.32
2019-01-14T00:38:03.883Z,984.45
2019-01-14T00:39:03.860Z,984.65
2019-01-14T00:40:03.878Z,984.46
2019-01-14T00:41:03.839Z,984.47
2019-01-14T00:42:03.835Z,984.30
2019-01-14T00:43:03.824Z,984.49
2019-01-14T00:44:03.798Z,984.59
2019-01-14T00:45:03.795Z,984.62
2019-01-14T00:46:03.799Z,984.96
2019-01-14T00:47:03.767Z,984.97
2019-01-14T00:48:03.763Z,984.71
2019-01-14T00:49:03.750Z,984.67
2019-01-14T00:50:03.737Z,984.75
2019-01-14T00:51:03.748Z,984.70
2019-01-14T00:52:03.715Z,984.82
2019-01-14T00:53:03.692Z,984.64
2019-01-14T00:54:03.685Z,984.77
2019-01-14T00:55:03.696Z,984.97
2019-01-14T00:56:03.675Z,985.06
2019-01-14T00:57:03.651Z,984.86
2019-01-14T00:58:03.717Z,984.95
2019-01-14T00:59:03.623Z,984.94
2019-01-14T01:00:03.629Z,985.08
2019-01-14T01:01:03.631Z,985.23
2019-01-14T01:02:03.599Z,985.11
2019-01-14T01:03:03.589Z,985.05
2019-01-14T01:04:03.580Z,985.02
2019-01-14T01:05:03.562Z,985.12
2019-01-14T01:06:03.574Z,985.14
2019-01-14T01:07:03.540Z,985.22
2019-01-14T01:08:03.529Z,985.10
2019-01-14T01:09:03.518Z,985.54
2019-01-14T01:10:03.523Z,985.17
2019-01-14T01:11:03.521Z,985.12
2019-01-14T01:12:03.490Z,985.28
2019-01-14T01:13:03.473Z,985.40
2019-01-14T01:14:03.473Z,985.40
2019-01-14T01:15:03.459Z,985.47
2019-01-14T01:16:03.455Z,985.54
2019-01-14T01:17:03.428Z,985.53
2019-01-14T01:18:03.418Z,985.61
2019-01-14T01:19:03.415Z,985.63
2019-01-14T01:20:03.402Z,985.64
2019-01-14T01:21:03.403Z,985.52
2019-01-14T01:22:03.368Z,985.40
2019-01-14T01:23:03.365Z,985.62
2019-01-14T01:24:03.345Z,985.50
2019-01-14T01:25:03.337Z,985.50
2019-01-14T01:26:03.338Z,985.80
2019-01-14T01:27:03.309Z,985.70
2019-01-14T01:28:03.305Z,985.74
2019-01-14T01:29:03.292Z,985.47
2019-01-14T01:30:03.286Z,985.62
2019-01-14T01:31:03.286Z,985.62
2019-01-14T01:32:03.256Z,985.71
2019-01-14T01:33:03.254Z,985.73
2019-01-14T01:34:03.234Z,985.85
2019-01-14T01:35:03.229Z,985.95
2019-01-14T01:36:03.222Z,985.92
2019-01-14T01:37:03.209Z,985.81
2019-01-14T01:38:03.194Z,985.78
2019-01-14T01:39:03.220Z,985.85
2019-01-14T01:40:03.172Z,985.85
2019-01-14T01:41:03.176Z,986.00
2019-01-14T01:42:03.150Z,985.99
2019-01-14T01:43:03.124Z,986.08
2019-01-14T01:44:03.127Z,985.97
2019-01-14T01:45:03.108Z,986.07
2019-01-14T01:46:03.125Z,985.94
2019-01-14T01:47:03.111Z,986.08
2019-01-14T01:48:03.074Z,986.21
2019-01-14T01:49:03.073Z,986.28
2019-01-14T01:50:03.053Z,986.27
2019-01-14T01:51:03.042Z,986.38
2019-01-14T01:52:03.053Z,986.30
2019-01-14T01:53:03.016Z,986.35
2019-01-14T01:54:03.011Z,986.31
2019-01-14T01:55:03.013Z,986.32
2019-01-14T01:56:02.986Z,986.26
2019-01-14T01:57:02.994Z,986.35
2019-01-14T01:58:02.966Z,986.42
2019-01-14T01:59:02.962Z,986.78
2019-01-14T02:00:02.939Z,986.69
2019-01-14T02:01:02.937Z,986.60
2019-01-14T02:02:02.943Z,986.48
2019-01-14T02:03:02.910Z,986.47
2019-01-14T02:04:02.896Z,986.54
2019-01-14T02:05:02.889Z,986.57
2019-01-14T02:06:02.875Z,986.59
2019-01-14T02:07:02.885Z,986.61
2019-01-14T02:08:02.852Z,986.58
2019-01-14T02:09:02.842Z,986.80
2019-01-14T02:10:02.838Z,986.82
2019-01-14T02:11:02.821Z,986.67
2019-01-14T02:12:02.825Z,986.70
2019-01-14T02:13:02.796Z,986.71
2019-01-14T02:14:02.797Z,986.74
2019-01-14T02:15:02.779Z,986.69
2019-01-14T02:16:02.772Z,986.73
2019-01-14T02:17:02.771Z,986.88
2019-01-14T02:18:02.733Z,986.87
2019-01-14T02:19:02.737Z,986.80
2019-01-14T02:20:02.725Z,986.89
2019-01-14T02:21:02.701Z,986.99
2019-01-14T02:22:02.715Z,987.24
2019-01-14T02:23:02.693Z,987.14
2019-01-14T02:24:02.678Z,986.86
2019-01-14T02:25:02.684Z,987.12
2019-01-14T02:26:02.660Z,987.08
2019-01-14T02:27:02.671Z,987.21
2019-01-14T02:28:02.631Z,987.29
2019-01-14T02:29:02.629Z,987.02
2019-01-14T02:30:02.614Z,987.12
2019-01-14T02:31:02.591Z,987.13
2019-01-14T02:32:02.613Z,987.27
2019-01-14T02:33:02.588Z,987.19
2019-01-14T02:34:02.563Z,987.12
2019-01-14T02:35:02.568Z,987.20
2019-01-14T02:36:02.540Z,987.12
2019-01-14T02:37:02.553Z,987.20
2019-01-14T02:38:02.518Z,987.38
2019-01-14T02:39:02.504Z,987.33
2019-01-14T02:40:02.507Z,987.47
2019-01-14T02:41:02.488Z,987.26
2019-01-14T02:42:02.478Z,987.35
2019-01-14T02:43:02.475Z,987.30
2019-01-14T02:44:02.446Z,987.40
2019-01-14T02:45:02.457Z,987.43
2019-01-14T02:46:02.439Z,987.54
2019-01-14T02:47:02.424Z,987.75
2019-01-14T02:48:02.424Z,987.63
2019-01-14T02:49:02.397Z,987.64
2019-01-14T02:50:02.388Z,987.82
2019-01-14T02:51:02.388Z,987.84
2019-01-14T02:52:02.368Z,987.70
2019-01-14T02:53:02.393Z,987.71
2019-01-14T02:54:02.335Z,987.74
2019-01-14T02:55:02.333Z,987.76
2019-01-14T02:56:02.313Z,987.86
2019-01-14T02:57:02.321Z,987.85
2019-01-14T02:58:02.309Z,987.94
2019-01-14T02:59:02.300Z,988.00
2019-01-14T03:00:02.285Z,988.14
2019-01-14T03:01:02.265Z,987.99
2019-01-14T03:02:02.253Z,987.98
2019-01-14T03:03:02.265Z,987.84
2019-01-14T03:04:02.241Z,988.08
2019-01-14T03:05:02.223Z,988.06
2019-01-14T03:06:02.202Z,987.98
2019-01-14T03:07:02.194Z,988.05
2019-01-14T03:08:02.203Z,988.37
2019-01-14T03:09:02.179Z,988.34
2019-01-14T03:10:02.164Z,988.33
2019-01-14T03:11:02.153Z,988.49
2019-01-14T03:12:02.144Z,988.33
2019-01-14T03:13:02.183Z,988.44
2019-01-14T03:14:02.121Z,988.39
2019-01-14T03:15:02.103Z,988.49
2019-01-14T03:16:02.107Z,988.55
2019-01-14T03:17:02.093Z,988.38
2019-01-14T03:18:02.072Z,988.41
2019-01-14T03:19:02.088Z,988.65
2019-01-14T03:20:02.067Z,988.45
2019-01-14T03:21:02.045Z,988.42
2019-01-14T03:22:02.038Z,988.63
2019-01-14T03:23:02.024Z,988.77
2019-01-14T03:24:02.033Z,988.77
2019-01-14T03:25:02.009Z,988.80
2019-01-14T03:26:01.989Z,988.64
2019-01-14T03:27:01.971Z,988.72
2019-01-14T03:28:01.960Z,988.84
2019-01-14T03:29:01.983Z,988.68
2019-01-14T03:30:01.946Z,988.95
2019-01-14T03:31:01.938Z,988.77
2019-01-14T03:32:01.952Z,988.77
2019-01-14T03:33:01.909Z,988.94
2019-01-14T03:34:01.912Z,988.89
2019-01-14T03:35:01.887Z,988.90
2019-01-14T03:36:01.882Z,988.94
2019-01-14T03:37:05.609Z,988.96
2019-01-14T03:38:01.850Z,989.01
2019-01-14T03:39:01.850Z,989.24
2019-01-14T03:40:01.830Z,989.10
2019-01-14T03:41:01.810Z,989.11
2019-01-14T03:42:01.808Z,989.25
2019-01-14T03:43:01.804Z,989.28
2019-01-14T03:44:01.824Z,989.13
2019-01-14T03:45:01.789Z,989.31
2019-01-14T03:46:01.764Z,989.23
2019-01-14T03:47:01.769Z,989.24
2019-01-14T03:48:01.740Z,989.44
2019-01-14T03:49:01.764Z,989.25
2019-01-14T03:50:01.720Z,989.44
2019-01-14T03:51:01.703Z,989.13
2019-01-14T03:52:01.696Z,989.49
2019-01-14T03:53:01.700Z,989.52
2019-01-14T03:54:01.716Z,989.38
2019-01-14T03:55:01.677Z,989.35
2019-01-14T03:56:01.650Z,989.46
2019-01-14T03:57:01.636Z,989.52
2019-01-14T03:58:01.646Z,989.43
2019-01-14T03:59:01.615Z,989.32
2019-01-14T04:00:01.626Z,989.37
2019-01-14T04:01:01.595Z,989.58
2019-01-14T04:02:01.592Z,989.46
2019-01-14T04:03:01.576Z,989.49
2019-01-14T04:04:01.642Z,989.66
2019-01-14T04:05:01.580Z,989.59
2019-01-14T04:06:01.542Z,989.65
2019-01-14T04:07:01.540Z,989.61
2019-01-14T04:08:01.517Z,989.48
2019-01-14T04:09:01.506Z,989.56
2019-01-14T04:10:01.514Z,989.66
2019-01-14T04:11:01.493Z,989.69
2019-01-14T04:12:01.480Z,989.55
2019-01-14T04:13:01.464Z,989.76
2019-01-14T04:14:01.450Z,989.66
2019-01-14T04:15:01.458Z,989.62
2019-01-14T04:16:01.431Z,989.81
2019-01-14T04:17:01.426Z,989.73
2019-01-14T04:18:01.405Z,989.84
2019-01-14T04:19:01.400Z,989.88
2019-01-14T04:20:01.436Z,989.68
2019-01-14T04:21:01.381Z,989.82
2019-01-14T04:22:01.364Z,990.01
2019-01-14T04:23:01.536Z,990.10
2019-01-14T04:24:01.337Z,989.82
2019-01-14T04:25:01.348Z,989.78
2019-01-14T04:26:01.374Z,990.06
2019-01-14T04:27:01.312Z,989.93
2019-01-14T04:28:01.298Z,989.86
2019-01-14T04:29:01.296Z,990.01
2019-01-14T04:30:01.284Z,989.84
2019-01-14T04:31:01.258Z,990.10
2019-01-14T04:32:01.267Z,990.09
2019-01-14T04:33:01.256Z,990.02
2019-01-14T04:34:01.237Z,989.87
2019-01-14T04:35:01.246Z,990.02
2019-01-14T04:36:01.207Z,990.69
2019-01-14T04:37:01.209Z,990.52
2019-01-14T04:38:01.187Z,990.01
2019-01-14T04:39:01.198Z,990.30
2019-01-14T04:40:01.164Z,990.13
2019-01-14T04:41:01.169Z,990.21
2019-01-14T04:42:01.140Z,990.12
2019-01-14T04:43:01.175Z,990.56
2019-01-14T04:44:01.115Z,990.38
2019-01-14T04:45:01.114Z,990.26
2019-01-14T04:46:01.117Z,990.28
2019-01-14T04:47:01.087Z,990.49
2019-01-14T04:48:01.073Z,990.51
2019-01-14T04:49:01.066Z,990.34
2019-01-14T04:50:01.061Z,990.50
2019-01-14T04:51:01.064Z,990.43
2019-01-14T04:52:01.033Z,990.46
2019-01-14T04:53:01.023Z,990.64
2019-01-14T04:54:01.025Z,990.62
2019-01-14T04:55:00.997Z,990.67
2019-01-14T04:56:01.017Z,990.65
2019-01-14T04:57:00.985Z,990.70
2019-01-14T04:58:00.967Z,990.59
2019-01-14T04:59:00.959Z,990.80
2019-01-14T05:00:00.951Z,990.62
2019-01-14T05:01:00.953Z,990.57
2019-01-14T05:02:00.926Z,990.59
2019-01-14T05:03:00.915Z,990.73
2019-01-14T05:04:00.910Z,990.81
2019-01-14T05:05:00.896Z,990.92
2019-01-14T05:06:00.899Z,990.72
2019-01-14T05:07:00.879Z,990.64
2019-01-14T05:08:00.852Z,990.99
2019-01-14T05:09:00.846Z,990.94
2019-01-14T05:10:00.835Z,990.93
2019-01-14T05:11:00.852Z,990.84
2019-01-14T05:12:00.808Z,990.89
2019-01-14T05:13:00.801Z,990.94
2019-01-14T05:14:00.792Z,990.86
2019-01-14T05:15:00.775Z,991.08
2019-01-14T05:16:00.786Z,991.07
2019-01-14T05:17:00.774Z,991.14
2019-01-14T05:18:00.746Z,991.08
2019-01-14T05:19:00.730Z,991.14
2019-01-14T05:20:00.735Z,991.08
2019-01-14T05:21:00.735Z,991.18
2019-01-14T05:22:00.704Z,991.16
2019-01-14T05:23:00.700Z,991.08
2019-01-14T05:24:00.674Z,991.21
2019-01-14T05:25:00.674Z,991.13
2019-01-14T05:26:00.695Z,991.24
2019-01-14T05:27:00.648Z,991.04
2019-01-14T05:28:00.653Z,990.99
2019-01-14T05:29:00.636Z,991.14
2019-01-14T05:30:00.632Z,991.03
2019-01-14T05:31:00.617Z,990.98
2019-01-14T05:32:00.611Z,991.20
2019-01-14T05:33:00.586Z,991.15
2019-01-14T05:34:00.561Z,991.06
2019-01-14T05:35:00.584Z,991.19
2019-01-14T05:36:00.546Z,991.42
2019-01-14T05:37:00.554Z,991.02
2019-01-14T05:38:00.587Z,991.28
2019-01-14T05:39:00.523Z,991.14
2019-01-14T05:40:00.515Z,990.99
2019-01-14T05:41:00.506Z,990.99
2019-01-14T05:42:00.488Z,991.15
2019-01-14T05:43:00.483Z,991.06
2019-01-14T05:44:00.484Z,991.14
2019-01-14T05:45:00.473Z,991.15
2019-01-14T05:46:00.438Z,990.98
2019-01-14T05:47:00.449Z,991.11
2019-01-14T05:48:00.416Z,991.08
2019-01-14T05:49:00.411Z,991.04
2019-01-14T05:50:00.394Z,991.10
2019-01-14T05:51:00.399Z,991.18
2019-01-14T05:52:00.390Z,991.05
2019-01-14T05:53:00.365Z,991.13
2019-01-14T05:54:00.352Z,991.19
2019-01-14T05:55:00.351Z,991.32
2019-01-14T05:56:00.323Z,991.19
2019-01-14T05:57:00.337Z,991.17
2019-01-14T05:58:00.318Z,991.03
2019-01-14T05:59:00.297Z,991.08
2019-01-14T06:00:00.284Z,991.19
2019-01-14T06:01:00.277Z,991.02
2019-01-14T06:02:00.281Z,991.00
2019-01-14T06:03:00.286Z,991.20
2019-01-14T06:04:00.267Z,990.99
2019-01-14T06:05:00.235Z,991.04
2019-01-14T06:06:00.214Z,991.10
2019-01-14T06:07:00.206Z,991.04
2019-01-14T06:08:00.218Z,991.20
2019-01-14T06:09:00.199Z,991.22
2019-01-14T06:10:00.214Z,991.10
2019-01-14T06:11:00.175Z,991.26
2019-01-14T06:12:00.162Z,991.21
2019-01-14T06:13:00.159Z,991.08
2019-01-14T06:14:00.135Z,991.14
2019-01-14T06:15:00.210Z,991.17
2019-01-14T06:16:00.117Z,991.03
2019-01-14T06:17:00.112Z,991.07
2019-01-14T06:18:00.113Z,991.13
2019-01-14T06:19:00.083Z,991.18
2019-01-14T06:20:00.087Z,991.37
2019-01-14T06:21:00.059Z,991.20
2019-01-14T06:22:00.061Z,991.31
2019-01-14T06:23:00.059Z,991.35
2019-01-14T06:24:00.045Z,991.33
2019-01-14T06:25:00.644Z,991.33
2019-01-14T06:26:00.046Z,991.48
2019-01-14T06:27:00.020Z,991.50
2019-01-14T06:28:00.063Z,991.61
2019-01-14T06:28:59.992Z,991.94
2019-01-14T06:29:59.968Z,992.02
2019-01-14T06:30:59.981Z,992.00
2019-01-14T06:31:59.987Z,992.00
2019-01-14T06:32:59.969Z,991.85
2019-01-14T06:33:59.986Z,991.95
2019-01-14T06:34:59.928Z,991.92
2019-01-14T06:35:59.932Z,992.07
2019-01-14T06:36:59.884Z,992.04
2019-01-14T06:37:59.906Z,992.02
2019-01-14T06:38:59.852Z,992.20
2019-01-14T06:39:59.842Z,992.03
2019-01-14T06:40:59.838Z,992.10
2019-01-14T06:41:59.828Z,992.16
2019-01-14T06:42:59.831Z,992.23
2019-01-14T06:43:59.806Z,992.33
2019-01-14T06:44:59.792Z,992.40
2019-01-14T06:45:59.790Z,992.41
2019-01-14T06:46:59.774Z,992.39
2019-01-14T06:47:59.776Z,992.27
2019-01-14T06:48:59.756Z,992.41
2019-01-14T06:49:59.736Z,992.43
2019-01-14T06:50:59.739Z,992.60
2019-01-14T06:51:59.728Z,992.58
2019-01-14T06:52:59.734Z,992.76
2019-01-14T06:53:59.713Z,992.56
2019-01-14T06:54:59.678Z,992.41
2019-01-14T06:55:59.664Z,992.41
2019-01-14T06:56:59.682Z,992.50
2019-01-14T06:57:59.653Z,992.61
2019-01-14T06:58:59.659Z,992.35
2019-01-14T06:59:59.640Z,992.46
2019-01-14T07:00:59.612Z,992.44
2019-01-14T07:01:59.606Z,992.39
2019-01-14T07:02:59.599Z,992.45
2019-01-14T07:03:59.615Z,992.42
2019-01-14T07:04:59.571Z,992.69
2019-01-14T07:05:59.571Z,992.62
2019-01-14T07:06:59.546Z,992.67
2019-01-14T07:08:00.058Z,992.60
2019-01-14T07:08:59.550Z,992.56
2019-01-14T07:09:59.552Z,992.66
2019-01-14T07:10:59.506Z,992.67
2019-01-14T07:11:59.513Z,992.62
2019-01-14T07:12:59.490Z,992.71
2019-01-14T07:13:59.526Z,992.84
2019-01-14T07:14:59.453Z,992.84
2019-01-14T07:15:59.446Z,992.90
2019-01-14T07:16:59.445Z,992.92
2019-01-14T07:17:59.456Z,992.94
2019-01-14T07:18:59.443Z,992.91
2019-01-14T07:19:59.410Z,993.17
2019-01-14T07:20:59.423Z,993.17
2019-01-14T07:21:59.395Z,993.16
2019-01-14T07:22:59.370Z,993.13
2019-01-14T07:23:59.403Z,993.17
2019-01-14T07:24:59.353Z,993.19
2019-01-14T07:25:59.366Z,993.17
2019-01-14T07:26:59.334Z,993.17
2019-01-14T07:27:59.313Z,993.08
2019-01-14T07:28:59.341Z,993.19
2019-01-14T07:29:59.290Z,993.11
2019-01-14T07:30:59.294Z,993.04
2019-01-14T07:31:59.317Z,993.09
2019-01-14T07:32:59.259Z,993.20
2019-01-14T07:33:59.272Z,993.18
2019-01-14T07:34:59.250Z,993.15
2019-01-14T07:35:59.305Z,993.12
2019-01-14T07:36:59.218Z,993.24
2019-01-14T07:37:59.205Z,993.27
2019-01-14T07:38:59.192Z,993.31
2019-01-14T07:39:59.196Z,993.33
2019-01-14T07:40:59.177Z,993.22
2019-01-14T07:41:59.176Z,993.22
2019-01-14T07:42:59.157Z,993.25
2019-01-14T07:43:59.144Z,993.23
2019-01-14T07:44:59.142Z,993.18
2019-01-14T07:45:59.122Z,993.31
2019-01-14T07:46:59.105Z,993.28
2019-01-14T07:47:59.096Z,993.24
2019-01-14T07:48:59.091Z,993.35
2019-01-14T07:49:59.086Z,993.49
2019-01-14T07:50:59.066Z,993.42
2019-01-14T07:51:59.095Z,993.30
2019-01-14T07:52:59.062Z,993.69
2019-01-14T07:53:59.036Z,993.31
2019-01-14T07:54:59.053Z,993.57
2019-01-14T07:55:59.076Z,993.40
2019-01-14T07:56:59.006Z,993.56
2019-01-14T07:57:59.001Z,993.52
2019-01-14T07:58:58.989Z,993.50
2019-01-14T07:59:58.981Z,993.43
2019-01-14T08:00:58.968Z,993.61
2019-01-14T08:01:58.942Z,993.51
2019-01-14T08:02:58.936Z,993.61
2019-01-14T08:03:58.938Z,993.71
2019-01-14T08:04:58.921Z,993.67
2019-01-14T08:05:58.907Z,993.80
2019-01-14T08:06:58.890Z,993.74
2019-01-14T08:07:58.871Z,993.64
2019-01-14T08:08:58.867Z,993.64
2019-01-14T08:09:58.916Z,993.67
2019-01-14T08:10:58.846Z,993.64
2019-01-14T08:11:58.836Z,993.68
2019-01-14T08:12:58.821Z,993.77
2019-01-14T08:13:58.808Z,993.80
2019-01-14T08:14:58.799Z,993.73
2019-01-14T08:15:58.816Z,993.89
2019-01-14T08:16:58.784Z,993.77
2019-01-14T08:17:58.801Z,993.84
2019-01-14T08:18:58.775Z,993.97
2019-01-14T08:19:58.751Z,993.76
2019-01-14T08:20:58.760Z,993.88
2019-01-14T08:21:58.737Z,993.78
2019-01-14T08:22:58.750Z,993.82
2019-01-14T08:23:58.720Z,993.93
2019-01-14T08:24:58.690Z,994.00
2019-01-14T08:25:58.686Z,994.06
2019-01-14T08:26:58.681Z,994.02
2019-01-14T08:27:58.664Z,994.00
2019-01-14T08:28:58.641Z,994.06
2019-01-14T08:29:58.642Z,993.98
2019-01-14T08:30:58.657Z,994.03
2019-01-14T08:31:58.632Z,994.13
2019-01-14T08:32:58.598Z,994.06
2019-01-14T08:33:58.594Z,994.06
2019-01-14T08:34:58.584Z,994.23
2019-01-14T08:35:58.669Z,994.04
2019-01-14T08:37:00.884Z,993.96
2019-01-14T08:37:58.565Z,994.02
2019-01-14T08:38:58.544Z,994.17
2019-01-14T08:39:58.539Z,994.02
2019-01-14T08:40:58.541Z,994.17
2019-01-14T08:41:58.511Z,994.14
2019-01-14T08:42:58.487Z,994.13
2019-01-14T08:43:58.495Z,994.13
2019-01-14T08:44:58.466Z,994.06
2019-01-14T08:45:58.470Z,994.18
2019-01-14T08:46:58.448Z,994.14
2019-01-14T08:47:58.438Z,994.23
2019-01-14T08:48:58.440Z,994.08
2019-01-14T08:49:58.412Z,994.02
2019-01-14T08:50:58.428Z,994.18
2019-01-14T08:51:58.395Z,994.27
2019-01-14T08:52:58.378Z,994.37
2019-01-14T08:53:58.382Z,994.22
2019-01-14T08:54:58.351Z,994.29
2019-01-14T08:55:58.377Z,994.20
2019-01-14T08:56:58.335Z,994.19
2019-01-14T08:57:58.332Z,994.20
2019-01-14T08:58:58.323Z,994.36
2019-01-14T08:59:59.149Z,994.26
2019-01-14T09:00:58.295Z,994.42
2019-01-14T09:01:58.299Z,994.49
2019-01-14T09:02:58.275Z,994.32
2019-01-14T09:03:58.269Z,994.57
2019-01-14T09:04:58.261Z,994.56
2019-01-14T09:05:58.233Z,994.38
2019-01-14T09:06:58.243Z,994.51
2019-01-14T09:07:58.214Z,994.54
2019-01-14T09:08:58.276Z,994.31
2019-01-14T09:09:58.197Z,994.57
2019-01-14T09:10:58.350Z,994.55
2019-01-14T09:11:58.193Z,994.64
2019-01-14T09:12:58.173Z,994.83
2019-01-14T09:13:58.166Z,994.85
2019-01-14T09:14:58.155Z,994.61
2019-01-14T09:15:58.129Z,994.74
2019-01-14T09:16:58.142Z,994.63
2019-01-14T09:18:02.678Z,994.62
2019-01-14T09:18:59.102Z,994.48
2019-01-14T09:19:58.090Z,994.80
2019-01-14T09:20:58.997Z,994.68
2019-01-14T09:21:58.082Z,994.68
2019-01-14T09:22:58.048Z,994.66
2019-01-14T09:23:58.042Z,994.65
2019-01-14T09:24:58.119Z,994.80
2019-01-14T09:25:58.017Z,994.67
2019-01-14T09:26:58.025Z,994.63
2019-01-14T09:27:58.004Z,994.86
2019-01-14T09:28:57.977Z,994.62
2019-01-14T09:29:57.986Z,994.67
2019-01-14T09:30:57.974Z,994.85
2019-01-14T09:31:57.967Z,994.72
2019-01-14T09:32:57.969Z,995.01
2019-01-14T09:33:57.944Z,994.72
2019-01-14T09:34:57.922Z,994.64
2019-01-14T09:35:57.906Z,994.72
2019-01-14T09:36:58.003Z,994.70
2019-01-14T09:37:57.900Z,994.75
2019-01-14T09:38:57.880Z,994.82
2019-01-14T09:39:57.882Z,994.93
2019-01-14T09:40:57.871Z,994.91
2019-01-14T09:41:57.860Z,994.69
2019-01-14T09:42:57.860Z,994.81
2019-01-14T09:43:57.818Z,994.89
2019-01-14T09:44:57.809Z,994.77
2019-01-14T09:45:57.813Z,994.84
2019-01-14T09:46:57.788Z,994.77
2019-01-14T09:47:57.785Z,995.09
2019-01-14T09:48:57.773Z,995.08
2019-01-14T09:49:57.756Z,994.87
2019-01-14T09:50:57.747Z,994.86
2019-01-14T09:51:57.745Z,994.79
2019-01-14T09:52:57.749Z,994.97
2019-01-14T09:53:57.718Z,994.96
2019-01-14T09:54:57.708Z,994.85
2019-01-14T09:55:57.747Z,994.94
2019-01-14T09:56:57.680Z,994.85
2019-01-14T09:57:57.684Z,994.77
2019-01-14T09:58:57.651Z,995.00
2019-01-14T09:59:57.659Z,994.96
2019-01-14T10:00:57.633Z,995.01
2019-01-14T10:01:57.635Z,995.11
2019-01-14T10:02:57.661Z,994.92
2019-01-14T10:03:57.607Z,995.00
2019-01-14T10:04:57.586Z,995.06
2019-01-14T10:05:57.684Z,994.89
2019-01-14T10:06:57.577Z,995.01
2019-01-14T10:07:57.576Z,994.83
2019-01-14T10:08:57.560Z,995.00
2019-01-14T10:09:57.534Z,995.02
2019-01-14T10:10:57.594Z,995.06
2019-01-14T10:11:57.517Z,994.96
2019-01-14T10:12:57.518Z,995.07
2019-01-14T10:13:57.489Z,995.10
2019-01-14T10:14:57.492Z,994.96
2019-01-14T10:15:57.479Z,995.04
2019-01-14T10:16:57.468Z,994.79
2019-01-14T10:17:57.472Z,994.77
2019-01-14T10:18:57.447Z,994.85
2019-01-14T10:19:57.434Z,994.89
2019-01-14T10:20:57.423Z,994.65
2019-01-14T10:21:57.424Z,994.87
2019-01-14T10:22:57.413Z,994.87
2019-01-14T10:23:57.382Z,994.92
2019-01-14T10:24:57.372Z,994.70
2019-01-14T10:25:57.361Z,994.91
2019-01-14T10:26:57.346Z,994.94
2019-01-14T10:27:57.358Z,994.97
2019-01-14T10:28:57.327Z,994.97
2019-01-14T10:29:57.310Z,994.77
2019-01-14T10:30:57.307Z,994.97
2019-01-14T10:31:57.313Z,994.91
2019-01-14T10:32:57.290Z,995.09
2019-01-14T10:33:57.271Z,994.99
2019-01-14T10:34:57.269Z,995.21
2019-01-14T10:35:57.253Z,994.95
2019-01-14T10:36:57.243Z,995.17
2019-01-14T10:37:57.257Z,995.25
2019-01-14T10:38:57.228Z,995.04
2019-01-14T10:39:57.220Z,994.98
2019-01-14T10:40:57.193Z,994.92
2019-01-14T10:41:57.190Z,995.07
2019-01-14T10:42:57.185Z,995.06
2019-01-14T10:43:57.179Z,994.81
2019-01-14T10:44:57.158Z,994.80
2019-01-14T10:45:57.142Z,994.94
2019-01-14T10:46:57.152Z,994.88
2019-01-14T10:47:57.131Z,995.17
2019-01-14T10:48:57.124Z,994.71
2019-01-14T10:49:57.100Z,994.89
2019-01-14T10:50:57.083Z,994.97
2019-01-14T10:51:57.071Z,994.82
2019-01-14T10:52:57.064Z,994.87
2019-01-14T10:53:57.072Z,994.90
2019-01-14T10:54:57.038Z,994.70
2019-01-14T10:55:57.030Z,994.91
2019-01-14T10:56:57.021Z,994.88
2019-01-14T10:57:57.015Z,994.91
2019-01-14T10:58:57.011Z,995.08
2019-01-14T10:59:56.982Z,995.06
2019-01-14T11:00:56.972Z,995.06
2019-01-14T11:01:56.972Z,994.85
2019-01-14T11:02:56.958Z,994.89
2019-01-14T11:03:56.960Z,994.89
2019-01-14T11:04:56.934Z,994.87
2019-01-14T11:05:56.921Z,994.89
2019-01-14T11:06:56.907Z,994.92
2019-01-14T11:07:56.909Z,995.03
2019-01-14T11:08:58.849Z,994.98
2019-01-14T11:09:57.883Z,995.04
2019-01-14T11:10:56.864Z,995.24
2019-01-14T11:11:56.869Z,995.14
2019-01-14T11:12:56.842Z,995.16
2019-01-14T11:13:56.844Z,994.93
2019-01-14T11:14:56.827Z,995.21
2019-01-14T11:15:56.819Z,995.23
2019-01-14T11:16:56.802Z,995.09
2019-01-14T11:17:56.796Z,995.13
2019-01-14T11:18:56.905Z,995.22
2019-01-14T11:19:56.778Z,995.26
2019-01-14T11:20:56.755Z,995.10
2019-01-14T11:21:56.761Z,995.14
2019-01-14T11:22:56.729Z,995.24
2019-01-14T11:23:56.770Z,995.25
2019-01-14T11:24:56.741Z,995.11
2019-01-14T11:25:56.709Z,995.31
2019-01-14T11:26:56.693Z,995.31
2019-01-14T11:27:56.701Z,995.15
2019-01-14T11:28:56.683Z,995.10
2019-01-14T11:29:56.675Z,995.20
2019-01-14T11:30:56.663Z,995.26
2019-01-14T11:31:56.633Z,995.39
2019-01-14T11:32:56.628Z,995.26
2019-01-14T11:33:56.624Z,995.23
2019-01-14T11:34:56.616Z,995.39
2019-01-14T11:35:56.591Z,995.37
2019-01-14T11:36:56.595Z,995.54
2019-01-14T11:37:56.559Z,995.27
2019-01-14T11:38:56.567Z,995.29
2019-01-14T11:39:56.584Z,995.26
2019-01-14T11:40:56.542Z,995.31
2019-01-14T11:41:56.525Z,995.44
2019-01-14T11:42:56.526Z,995.52
2019-01-14T11:43:56.501Z,995.59
2019-01-14T11:44:57.113Z,995.42
2019-01-14T11:45:56.485Z,995.66
2019-01-14T11:46:56.477Z,995.47
2019-01-14T11:47:56.461Z,995.44
2019-01-14T11:48:56.461Z,995.63
2019-01-14T11:49:56.445Z,995.85
2019-01-14T11:50:56.426Z,995.59
2019-01-14T11:51:56.414Z,995.62
2019-01-14T11:52:56.425Z,995.61
2019-01-14T11:53:56.399Z,995.79
2019-01-14T11:54:56.401Z,995.70
2019-01-14T11:55:56.390Z,995.63
2019-01-14T11:56:56.363Z,995.58
2019-01-14T11:57:56.348Z,995.62
2019-01-14T11:58:56.336Z,995.68
2019-01-14T11:59:56.336Z,995.58
2019-01-14T12:00:56.327Z,995.79
2019-01-14T12:01:56.302Z,995.65
2019-01-14T12:02:56.295Z,995.83
2019-01-14T12:03:56.287Z,995.56
2019-01-14T12:04:56.283Z,995.68
2019-01-14T12:05:56.266Z,995.54
2019-01-14T12:06:56.254Z,995.59
2019-01-14T12:07:56.236Z,995.66
2019-01-14T12:08:56.240Z,995.88
2019-01-14T12:09:56.232Z,995.57
2019-01-14T12:10:56.205Z,995.66
2019-01-14T12:11:56.209Z,995.80
2019-01-14T12:12:56.183Z,995.69
2019-01-14T12:13:56.172Z,995.75
2019-01-14T12:14:56.178Z,995.92
2019-01-14T12:15:56.151Z,995.80
2019-01-14T12:16:56.138Z,995.83
2019-01-14T12:17:56.158Z,995.71
2019-01-14T12:18:56.152Z,995.85
2019-01-14T12:19:56.124Z,995.89
2019-01-14T12:20:56.104Z,995.71
2019-01-14T12:21:56.079Z,995.75
2019-01-14T12:22:56.082Z,995.64
2019-01-14T12:23:56.074Z,995.77
2019-01-14T12:24:56.092Z,995.66
2019-01-14T12:25:56.052Z,995.78
2019-01-14T12:26:56.032Z,995.74
2019-01-14T12:27:56.048Z,995.65